logo dgac
Miércoles 10 de Agosto del 2022
Buscar por aerodromo o helipuerto
Ingrese nombre de aeródromo, localidad o designador OACI:
TAF: TAF SCIC 101100Z 1012/1100 VRB02KT 8000 NSC TX15/1018Z TN03/1012Z TEMPO 1012/1014 VRB02KT 2000 BR BKN005 BECMG 1016/1018 21008KT CAVOK
TAF del 10/08/2022 a las 11:00 UTC
Para mayor información visite www.meteochile.cl
Período de validez: desde el 10 a las 12:00 UTC hasta el 11 a las 00:00 UTC
Viento: dirección variable, velocidad 2 nudos
Visibilidad: 8000 metros
Sin nubes bajo los 5000 pies o bajo del MSA (Mínimo de Seguridad del Aeródromo)
Temperatura máxima: 15ºC el 10 a las 18:00 UTC
Temperatura mínima: 3ºC el 10 a las 12:00 UTC
Se espera en forma temporal entre las 12:00 UTC del 10 y las 14:00 UTC del 10:
Viento: dirección variable, velocidad 2 nudos
Visibilidad: 2000 metros
Neblina
Nubes: Nublado a 500 pies sobre el nivel del aeródromo
Se espera un cambio entre las 16:00 UTC del 10 y las 18:00 UTC del 10, :
Viento: dirección 210 grados, velocidad 8 nudos
Visibilidad: 10 km o más,
    sin nubes bajo los 5.000 pies o bajo del MSA (Mínimo de Seguridad del Aeródromo),
    sin cumulonimbus, y sin fenómenos de tiempo significativo en el aeródromo o alrededores